Meteo Giornale » Osservazioni meteo Italia » Brescia-Ghedi

ore: 20:55 - Osservazioni Meteo Brescia-Ghedi
Lat. 45° 25' N Lon. 10° 17' E Alt. 102 metri s.l.m.

nuvoloso Europe/Rome

26 °C

Nuvoloso

Temp. 24 Ore

20 °C

31 °C

Sud-Est

7.4 Km/h

Dew point 12 °C

Umidità 41 %

Visibilità  10 Km

Il sole sorge alle ore 05:28

Il sole tramonta alle ore 21:12

Data e Ora Cielo e Fenomeni T °C DP °C Um. % Pres. hPa Vis. km Vento km/h
Oggi h: 20:55 nuvoloso Nuvoloso 26 12 41 1018 10 SE 7.4
Oggi h: 19:55 poco_nuvoloso Poco Nuvoloso 28 11 34 1018 10 SE 7.4
Oggi h: 18:55 poco_nuvoloso Poco Nuvoloso 30 10 28 1018 10 N 5.5
Oggi h: 17:55 poco_nuvoloso Poco Nuvoloso 30 10 28 1018 10 SE 7.4
Oggi h: 16:55 poco_nuvoloso Poco Nuvoloso 31 9 25 1019 10 E 7.4
Oggi h: 15:55 poco_nuvoloso Poco Nuvoloso 31 10 27 1019 10 N 5.5
Oggi h: 14:55 poco_nuvoloso Poco Nuvoloso 30 10 28 1019 10 S/SE 7.4
Oggi h: 13:55 poco_nuvoloso Poco Nuvoloso 30 10 28 1019 10 S/SE 9.3
Oggi h: 12:55 sereno Sereno 30 11 30 1020 10 S/SE 7.4
Oggi h: 11:55 sereno Sereno 28 11 34 1020 10 E/SE 7.4
Oggi h: 10:55 sereno Sereno 27 10 34 1020 10 E 13
Oggi h: 09:55 sereno Sereno 26 9 34 1020 10 N 0
Oggi h: 08:55 sereno Sereno 25 9 36 1020 10 E 20.3
Oggi h: 07:55 sereno Sereno 23 15 60 1019 10 E 11.1
Oggi h: 06:55 sereno Sereno 22 15 64 1018 10 N 5.5
Oggi h: 05:55 sereno Sereno 20 13 64 1018 10 E/NE 9.3
Oggi h: 04:55 sereno Sereno 20 16 77 1017 10 N 5.5
Oggi h: 03:55 sereno Sereno 21 18 82 1017 10 E/NE 9.3
Oggi h: 02:55 sereno Sereno 22 17 73 1017 10 N 3.7
Oggi h: 01:55 sereno Sereno 23 18 73 1017 10 N 5.5
Oggi h: 00:55 sereno Sereno 23 17 68 1017 10 N 5.5
Ieri h: 23:55 nuvoloso Nuvoloso 23 16 64 1017 10 N 3.7
Ieri h: 22:55 nuvoloso Nuvoloso 23 17 68 1017 10 NE 7.4